sensor_id;sensor_type;location;lat;lon;timestamp;pressure;altitude;pressure_sealevel;temperature;humidity
5062;BME280;2351;50.812;12.872;2022-07-23T00:00:08;97990.22;;;18.66;67.53
5062;BME280;2351;50.812;12.872;2022-07-23T00:02:40;97991.44;;;18.63;67.58
5062;BME280;2351;50.812;12.872;2022-07-23T00:05:11;98000.47;;;18.62;67.56
5062;BME280;2351;50.812;12.872;2022-07-23T00:07:43;97995.47;;;18.59;67.87
5062;BME280;2351;50.812;12.872;2022-07-23T00:10:15;97999.91;;;18.52;68.14
5062;BME280;2351;50.812;12.872;2022-07-23T00:12:46;98004.50;;;18.43;68.53
5062;BME280;2351;50.812;12.872;2022-07-23T00:15:19;97996.53;;;18.35;68.73
5062;BME280;2351;50.812;12.872;2022-07-23T00:17:51;97991.06;;;18.28;68.91
5062;BME280;2351;50.812;12.872;2022-07-23T00:20:23;97988.75;;;18.25;69.21
5062;BME280;2351;50.812;12.872;2022-07-23T00:22:55;98004.34;;;18.21;69.59
5062;BME280;2351;50.812;12.872;2022-07-23T00:25:27;97997.69;;;18.17;69.82
5062;BME280;2351;50.812;12.872;2022-07-23T00:28:00;97983.63;;;18.15;69.73
5062;BME280;2351;50.812;12.872;2022-07-23T00:30:33;97974.94;;;18.13;70.10
5062;BME280;2351;50.812;12.872;2022-07-23T00:33:06;97972.47;;;18.12;70.13
5062;BME280;2351;50.812;12.872;2022-07-23T00:35:39;97969.94;;;18.10;70.23
5062;BME280;2351;50.812;12.872;2022-07-23T00:38:11;97962.94;;;18.09;70.58
5062;BME280;2351;50.812;12.872;2022-07-23T00:40:43;97965.78;;;18.08;70.68
5062;BME280;2351;50.812;12.872;2022-07-23T00:43:14;97957.94;;;18.06;70.73
5062;BME280;2351;50.812;12.872;2022-07-23T00:45:47;97953.41;;;18.06;70.83
5062;BME280;2351;50.812;12.872;2022-07-23T00:48:19;97952.41;;;18.08;71.16
5062;BME280;2351;50.812;12.872;2022-07-23T00:50:51;97947.91;;;18.08;71.15
5062;BME280;2351;50.812;12.872;2022-07-23T00:53:22;97951.38;;;18.09;71.37
5062;BME280;2351;50.812;12.872;2022-07-23T00:55:54;97939.84;;;18.08;71.26
5062;BME280;2351;50.812;12.872;2022-07-23T00:58:26;97948.72;;;18.09;71.48
5062;BME280;2351;50.812;12.872;2022-07-23T01:01:00;97939.84;;;18.08;71.93
5062;BME280;2351;50.812;12.872;2022-07-23T01:03:31;97937.53;;;18.05;72.38
5062;BME280;2351;50.812;12.872;2022-07-23T01:06:03;97931.03;;;17.99;72.52
5062;BME280;2351;50.812;12.872;2022-07-23T01:08:34;97929.41;;;17.98;72.41
5062;BME280;2351;50.812;12.872;2022-07-23T01:11:07;97920.31;;;17.99;72.36
5062;BME280;2351;50.812;12.872;2022-07-23T01:13:40;97918.31;;;18.01;72.66
5062;BME280;2351;50.812;12.872;2022-07-23T01:16:14;97906.94;;;17.99;73.55
5062;BME280;2351;50.812;12.872;2022-07-23T01:18:47;97909.13;;;17.96;73.16
5062;BME280;2351;50.812;12.872;2022-07-23T01:21:19;97901.44;;;17.92;73.30
5062;BME280;2351;50.812;12.872;2022-07-23T01:23:53;97896.28;;;17.91;73.70
5062;BME280;2351;50.812;12.872;2022-07-23T01:26:24;97901.66;;;17.91;73.42
5062;BME280;2351;50.812;12.872;2022-07-23T01:28:56;97900.78;;;17.90;74.02
5062;BME280;2351;50.812;12.872;2022-07-23T01:31:27;97906.69;;;17.86;74.54
5062;BME280;2351;50.812;12.872;2022-07-23T01:33:59;97901.03;;;17.81;74.59
5062;BME280;2351;50.812;12.872;2022-07-23T01:36:31;97885.53;;;17.76;75.17
5062;BME280;2351;50.812;12.872;2022-07-23T01:39:05;97886.09;;;17.71;75.18
5062;BME280;2351;50.812;12.872;2022-07-23T01:41:37;97872.41;;;17.66;75.64
5062;BME280;2351;50.812;12.872;2022-07-23T01:44:09;97877.94;;;17.65;75.49
5062;BME280;2351;50.812;12.872;2022-07-23T01:46:40;97870.72;;;17.65;75.31
5062;BME280;2351;50.812;12.872;2022-07-23T01:49:12;97862.50;;;17.67;75.50
5062;BME280;2351;50.812;12.872;2022-07-23T01:51:43;97858.66;;;17.69;75.84
5062;BME280;2351;50.812;12.872;2022-07-23T01:54:32;97857.66;;;17.70;75.58
5062;BME280;2351;50.812;12.872;2022-07-23T01:57:04;97858.47;;;17.71;75.62
5062;BME280;2351;50.812;12.872;2022-07-23T01:59:35;97858.13;;;17.74;75.84
5062;BME280;2351;50.812;12.872;2022-07-23T02:02:09;97861.81;;;17.73;75.69
5062;BME280;2351;50.812;12.872;2022-07-23T02:04:41;97859.97;;;17.73;75.72
5062;BME280;2351;50.812;12.872;2022-07-23T02:07:12;97865.84;;;17.69;76.62
5062;BME280;2351;50.812;12.872;2022-07-23T02:09:45;97868.72;;;17.67;76.20
5062;BME280;2351;50.812;12.872;2022-07-23T02:12:17;97865.03;;;17.68;76.48
5062;BME280;2351;50.812;12.872;2022-07-23T02:14:48;97856.34;;;17.66;76.22
5062;BME280;2351;50.812;12.872;2022-07-23T02:17:20;97858.16;;;17.66;76.42
5062;BME280;2351;50.812;12.872;2022-07-23T02:19:52;97864.38;;;17.66;76.25
5062;BME280;2351;50.812;12.872;2022-07-23T02:22:23;97859.03;;;17.66;76.26
5062;BME280;2351;50.812;12.872;2022-07-23T02:24:56;97865.03;;;17.68;76.39
5062;BME280;2351;50.812;12.872;2022-07-23T02:27:28;97865.03;;;17.68;76.44
5062;BME280;2351;50.812;12.872;2022-07-23T02:29:59;97860.38;;;17.62;76.49
5062;BME280;2351;50.812;12.872;2022-07-23T02:32:31;97869.78;;;17.58;76.86
5062;BME280;2351;50.812;12.872;2022-07-23T02:35:04;97864.78;;;17.55;76.78
5062;BME280;2351;50.812;12.872;2022-07-23T02:37:35;97861.47;;;17.53;76.76
5062;BME280;2351;50.812;12.872;2022-07-23T02:40:09;97865.16;;;17.52;76.68
5062;BME280;2351;50.812;12.872;2022-07-23T02:42:42;97870.66;;;17.50;77.04
5062;BME280;2351;50.812;12.872;2022-07-23T02:45:13;97861.84;;;17.50;76.97
5062;BME280;2351;50.812;12.872;2022-07-23T02:47:45;97861.19;;;17.48;77.23
5062;BME280;2351;50.812;12.872;2022-07-23T02:50:16;97860.50;;;17.45;77.07
5062;BME280;2351;50.812;12.872;2022-07-23T02:52:48;97858.00;;;17.44;77.28
5062;BME280;2351;50.812;12.872;2022-07-23T02:55:21;97851.03;;;17.43;77.32
5062;BME280;2351;50.812;12.872;2022-07-23T02:57:52;97848.50;;;17.41;77.47
5062;BME280;2351;50.812;12.872;2022-07-23T03:00:24;97848.50;;;17.41;77.45
5062;BME280;2351;50.812;12.872;2022-07-23T03:02:56;97850.53;;;17.39;77.49
5062;BME280;2351;50.812;12.872;2022-07-23T03:05:27;97848.03;;;17.38;77.41
5062;BME280;2351;50.812;12.872;2022-07-23T03:07:59;97855.41;;;17.36;77.47
5062;BME280;2351;50.812;12.872;2022-07-23T03:10:32;97849.19;;;17.35;77.55
5062;BME280;2351;50.812;12.872;2022-07-23T03:13:03;97845.25;;;17.31;77.61
5062;BME280;2351;50.812;12.872;2022-07-23T03:15:35;97837.94;;;17.25;78.01
5062;BME280;2351;50.812;12.872;2022-07-23T03:18:07;97855.53;;;17.19;77.98
5062;BME280;2351;50.812;12.872;2022-07-23T03:20:38;97852.34;;;17.15;78.45
5062;BME280;2351;50.812;12.872;2022-07-23T03:23:10;97865.25;;;17.12;78.44
5062;BME280;2351;50.812;12.872;2022-07-23T03:25:43;97850.41;;;17.09;78.67
5062;BME280;2351;50.812;12.872;2022-07-23T03:28:17;97855.25;;;17.06;78.75
5062;BME280;2351;50.812;12.872;2022-07-23T03:30:49;97847.41;;;17.04;79.14
5062;BME280;2351;50.812;12.872;2022-07-23T03:33:21;97854.13;;;17.00;79.41
5062;BME280;2351;50.812;12.872;2022-07-23T03:35:53;97854.78;;;16.94;80.17
5062;BME280;2351;50.812;12.872;2022-07-23T03:38:24;97854.84;;;16.85;80.46
5062;BME280;2351;50.812;12.872;2022-07-23T03:40:57;97862.22;;;16.75;81.35
5062;BME280;2351;50.812;12.872;2022-07-23T03:43:29;97877.63;;;16.65;82.20
5062;BME280;2351;50.812;12.872;2022-07-23T03:46:00;97872.97;;;16.59;82.30
5062;BME280;2351;50.812;12.872;2022-07-23T03:48:32;97861.50;;;16.50;83.31
5062;BME280;2351;50.812;12.872;2022-07-23T03:51:04;97864.31;;;16.48;83.23
5062;BME280;2351;50.812;12.872;2022-07-23T03:53:35;97846.63;;;16.47;84.02
5062;BME280;2351;50.812;12.872;2022-07-23T03:56:08;97849.00;;;16.42;84.24
5062;BME280;2351;50.812;12.872;2022-07-23T03:58:40;97848.81;;;16.44;83.80
5062;BME280;2351;50.812;12.872;2022-07-23T04:01:12;97845.66;;;16.40;84.78
5062;BME280;2351;50.812;12.872;2022-07-23T04:03:43;97853.84;;;16.38;84.74
5062;BME280;2351;50.812;12.872;2022-07-23T04:06:16;97856.00;;;16.43;84.89
5062;BME280;2351;50.812;12.872;2022-07-23T04:08:48;97857.16;;;16.49;84.72
5062;BME280;2351;50.812;12.872;2022-07-23T04:11:21;97860.63;;;16.49;85.02
5062;BME280;2351;50.812;12.872;2022-07-23T04:13:53;97853.28;;;16.51;85.08
5062;BME280;2351;50.812;12.872;2022-07-23T04:16:24;97861.31;;;16.51;85.20
5062;BME280;2351;50.812;12.872;2022-07-23T04:18:56;97850.94;;;16.56;84.89
5062;BME280;2351;50.812;12.872;2022-07-23T04:21:27;97851.94;;;16.64;84.88
5062;BME280;2351;50.812;12.872;2022-07-23T04:23:59;97865.56;;;16.69;85.13
5062;BME280;2351;50.812;12.872;2022-07-23T04:26:32;97872.59;;;16.70;84.96
5062;BME280;2351;50.812;12.872;2022-07-23T04:29:04;97886.13;;;16.68;84.94
5062;BME280;2351;50.812;12.872;2022-07-23T04:31:35;97892.28;;;16.69;85.10
5062;BME280;2351;50.812;12.872;2022-07-23T04:34:07;97903.66;;;16.71;84.61
5062;BME280;2351;50.812;12.872;2022-07-23T04:36:38;97898.97;;;16.73;84.67
5062;BME280;2351;50.812;12.872;2022-07-23T04:39:10;97895.81;;;16.69;84.85
5062;BME280;2351;50.812;12.872;2022-07-23T04:41:43;97887.31;;;16.66;84.85
5062;BME280;2351;50.812;12.872;2022-07-23T04:44:15;97896.50;;;16.63;84.75
5062;BME280;2351;50.812;12.872;2022-07-23T04:46:46;97902.50;;;16.65;84.91
5062;BME280;2351;50.812;12.872;2022-07-23T04:49:18;97910.19;;;16.60;84.93
5062;BME280;2351;50.812;12.872;2022-07-23T04:51:49;97936.44;;;16.56;85.27
5062;BME280;2351;50.812;12.872;2022-07-23T04:54:21;97964.00;;;16.49;85.66
5062;BME280;2351;50.812;12.872;2022-07-23T04:56:54;97940.28;;;16.46;86.06
5062;BME280;2351;50.812;12.872;2022-07-23T04:59:25;97941.63;;;16.41;86.48
5062;BME280;2351;50.812;12.872;2022-07-23T05:01:57;97934.47;;;16.34;86.81
5062;BME280;2351;50.812;12.872;2022-07-23T05:04:28;97916.28;;;16.29;86.91
5062;BME280;2351;50.812;12.872;2022-07-23T05:07:01;97916.13;;;16.22;87.30
5062;BME280;2351;50.812;12.872;2022-07-23T05:09:33;97928.63;;;16.14;87.73
5062;BME280;2351;50.812;12.872;2022-07-23T05:12:06;97932.31;;;16.13;88.15
5062;BME280;2351;50.812;12.872;2022-07-23T05:14:39;97931.81;;;16.09;87.97
5062;BME280;2351;50.812;12.872;2022-07-23T05:17:10;97943.84;;;16.05;88.49
5062;BME280;2351;50.812;12.872;2022-07-23T05:19:42;97932.47;;;16.03;88.71
5062;BME280;2351;50.812;12.872;2022-07-23T05:22:14;97936.84;;;15.95;89.04
5062;BME280;2351;50.812;12.872;2022-07-23T05:24:45;97946.00;;;15.93;89.25
5062;BME280;2351;50.812;12.872;2022-07-23T05:27:18;97954.53;;;15.96;89.44
5062;BME280;2351;50.812;12.872;2022-07-23T05:29:50;97942.50;;;15.92;89.26
5062;BME280;2351;50.812;12.872;2022-07-23T05:32:21;97945.16;;;15.76;89.38
5062;BME280;2351;50.812;12.872;2022-07-23T05:34:53;97950.81;;;15.73;89.89
5062;BME280;2351;50.812;12.872;2022-07-23T05:37:24;97953.28;;;15.74;89.86
5062;BME280;2351;50.812;12.872;2022-07-23T05:40:00;97947.28;;;15.72;90.10
5062;BME280;2351;50.812;12.872;2022-07-23T05:42:33;97934.47;;;15.76;90.10
5062;BME280;2351;50.812;12.872;2022-07-23T05:45:06;97947.44;;;15.79;90.19
5062;BME280;2351;50.812;12.872;2022-07-23T05:47:42;97953.47;;;15.73;90.13
5062;BME280;2351;50.812;12.872;2022-07-23T05:50:15;97963.97;;;15.74;90.38
5062;BME280;2351;50.812;12.872;2022-07-23T05:52:47;97965.31;;;15.78;90.21
5062;BME280;2351;50.812;12.872;2022-07-23T05:55:18;97966.38;;;15.86;90.37
5062;BME280;2351;50.812;12.872;2022-07-23T05:57:51;97982.53;;;15.92;90.23
5062;BME280;2351;50.812;12.872;2022-07-23T06:00:24;97990.53;;;16.01;90.16
5062;BME280;2351;50.812;12.872;2022-07-23T06:02:56;98005.38;;;16.11;90.06
5062;BME280;2351;50.812;12.872;2022-07-23T06:05:28;98000.56;;;16.15;89.11
5062;BME280;2351;50.812;12.872;2022-07-23T06:07:59;98002.91;;;16.18;89.24
5062;BME280;2351;50.812;12.872;2022-07-23T06:10:31;97993.91;;;16.19;88.74
5062;BME280;2351;50.812;12.872;2022-07-23T06:13:04;98000.72;;;16.14;88.11
5062;BME280;2351;50.812;12.872;2022-07-23T06:15:35;97999.41;;;16.26;88.52
5062;BME280;2351;50.812;12.872;2022-07-23T06:18:07;98009.25;;;16.34;87.86
5062;BME280;2351;50.812;12.872;2022-07-23T06:20:39;98003.25;;;16.40;88.14
5062;BME280;2351;50.812;12.872;2022-07-23T06:23:11;97996.53;;;16.44;87.58
5062;BME280;2351;50.812;12.872;2022-07-23T06:25:43;97994.19;;;16.49;87.28
5062;BME280;2351;50.812;12.872;2022-07-23T06:28:16;97993.53;;;16.55;86.73
5062;BME280;2351;50.812;12.872;2022-07-23T06:30:48;98003.72;;;16.52;85.06
5062;BME280;2351;50.812;12.872;2022-07-23T06:33:19;98005.56;;;16.60;85.22
5062;BME280;2351;50.812;12.872;2022-07-23T06:35:51;98006.03;;;16.71;85.37
5062;BME280;2351;50.812;12.872;2022-07-23T06:38:22;98008.19;;;16.76;84.64
5062;BME280;2351;50.812;12.872;2022-07-23T06:40:54;97999.16;;;16.69;84.29
5062;BME280;2351;50.812;12.872;2022-07-23T06:43:27;98004.50;;;16.77;84.69
5062;BME280;2351;50.812;12.872;2022-07-23T06:45:59;98012.19;;;16.80;83.77
5062;BME280;2351;50.812;12.872;2022-07-23T06:48:30;98002.69;;;16.61;82.68
5062;BME280;2351;50.812;12.872;2022-07-23T06:51:02;98011.53;;;16.70;83.79
5062;BME280;2351;50.812;12.872;2022-07-23T06:53:33;98008.00;;;16.86;83.63
5062;BME280;2351;50.812;12.872;2022-07-23T06:56:05;98019.88;;;16.83;83.34
5062;BME280;2351;50.812;12.872;2022-07-23T06:58:38;98007.47;;;16.91;83.15
5062;BME280;2351;50.812;12.872;2022-07-23T07:01:09;98013.50;;;17.01;83.36
5062;BME280;2351;50.812;12.872;2022-07-23T07:03:41;98012.13;;;17.13;83.28
5062;BME280;2351;50.812;12.872;2022-07-23T07:06:13;98010.75;;;17.26;83.57
5062;BME280;2351;50.812;12.872;2022-07-23T07:08:45;97994.81;;;17.41;83.22
5062;BME280;2351;50.812;12.872;2022-07-23T07:11:17;97995.81;;;17.40;82.72
5062;BME280;2351;50.812;12.872;2022-07-23T07:13:49;97996.38;;;17.58;82.82
5062;BME280;2351;50.812;12.872;2022-07-23T07:16:21;97994.78;;;17.72;82.72
5062;BME280;2351;50.812;12.872;2022-07-23T07:18:53;97998.75;;;17.76;82.24
5062;BME280;2351;50.812;12.872;2022-07-23T07:21:24;97982.78;;;17.68;81.08
5062;BME280;2351;50.812;12.872;2022-07-23T07:23:56;97985.06;;;17.48;79.57
5062;BME280;2351;50.812;12.872;2022-07-23T07:26:27;97986.81;;;17.64;80.99
5062;BME280;2351;50.812;12.872;2022-07-23T07:29:01;97974.56;;;17.93;81.14
5062;BME280;2351;50.812;12.872;2022-07-23T07:31:32;97967.81;;;18.05;80.50
5062;BME280;2351;50.812;12.872;2022-07-23T07:34:04;97981.06;;;18.22;79.09
5062;BME280;2351;50.812;12.872;2022-07-23T07:36:36;97981.28;;;18.35;79.40
5062;BME280;2351;50.812;12.872;2022-07-23T07:39:09;97975.66;;;18.30;77.00
5062;BME280;2351;50.812;12.872;2022-07-23T07:41:40;97976.34;;;18.24;76.93
5062;BME280;2351;50.812;12.872;2022-07-23T07:44:13;97973.03;;;18.22;76.50
5062;BME280;2351;50.812;12.872;2022-07-23T07:46:45;97980.53;;;18.27;76.17
5062;BME280;2351;50.812;12.872;2022-07-23T07:49:17;97983.31;;;18.33;75.97
5062;BME280;2351;50.812;12.872;2022-07-23T07:51:49;97975.03;;;18.43;76.47
5062;BME280;2351;50.812;12.872;2022-07-23T07:54:21;97969.72;;;18.73;76.72
5062;BME280;2351;50.812;12.872;2022-07-23T07:56:52;97971.31;;;18.98;74.54
5062;BME280;2351;50.812;12.872;2022-07-23T07:59:25;97965.66;;;19.07;74.42
5062;BME280;2351;50.812;12.872;2022-07-23T08:01:57;97971.28;;;19.27;74.88
5062;BME280;2351;50.812;12.872;2022-07-23T08:04:29;97982.53;;;19.38;74.26
5062;BME280;2351;50.812;12.872;2022-07-23T08:07:00;97976.44;;;19.44;74.62
5062;BME280;2351;50.812;12.872;2022-07-23T08:09:32;97968.91;;;19.54;74.33
5062;BME280;2351;50.812;12.872;2022-07-23T08:12:03;97971.47;;;19.63;74.22
5062;BME280;2351;50.812;12.872;2022-07-23T08:14:36;97965.91;;;19.64;73.82
5062;BME280;2351;50.812;12.872;2022-07-23T08:17:08;97966.31;;;19.61;73.14
5062;BME280;2351;50.812;12.872;2022-07-23T08:19:39;97963.78;;;19.60;73.07
5062;BME280;2351;50.812;12.872;2022-07-23T08:22:11;97963.16;;;19.57;72.16
5062;BME280;2351;50.812;12.872;2022-07-23T08:24:43;97965.84;;;19.57;72.38
5062;BME280;2351;50.812;12.872;2022-07-23T08:27:14;97963.94;;;19.51;71.85
5062;BME280;2351;50.812;12.872;2022-07-23T08:29:47;97969.91;;;19.53;72.00
5062;BME280;2351;50.812;12.872;2022-07-23T08:32:19;97973.25;;;19.55;72.07
5062;BME280;2351;50.812;12.872;2022-07-23T08:34:50;97969.53;;;19.56;71.57
5062;BME280;2351;50.812;12.872;2022-07-23T08:37:22;97971.84;;;19.60;71.53
5062;BME280;2351;50.812;12.872;2022-07-23T08:39:53;97962.19;;;19.65;71.31
5062;BME280;2351;50.812;12.872;2022-07-23T08:42:26;97961.13;;;19.60;70.97
5062;BME280;2351;50.812;12.872;2022-07-23T08:44:59;97964.16;;;19.56;71.15
5062;BME280;2351;50.812;12.872;2022-07-23T08:47:31;97967.97;;;19.62;71.24
5062;BME280;2351;50.812;12.872;2022-07-23T08:50:03;97966.44;;;19.75;71.51
5062;BME280;2351;50.812;12.872;2022-07-23T08:52:36;97972.22;;;19.93;71.46
5062;BME280;2351;50.812;12.872;2022-07-23T08:55:09;97985.72;;;20.00;68.57
5062;BME280;2351;50.812;12.872;2022-07-23T08:57:40;97990.22;;;19.93;68.71
5062;BME280;2351;50.812;12.872;2022-07-23T09:00:14;98001.59;;;19.95;68.76
5062;BME280;2351;50.812;12.872;2022-07-23T09:02:46;98009.19;;;20.13;69.24
5062;BME280;2351;50.812;12.872;2022-07-23T09:05:19;98012.31;;;20.38;69.55
5062;BME280;2351;50.812;12.872;2022-07-23T09:08:09;98007.78;;;20.67;69.52
5062;BME280;2351;50.812;12.872;2022-07-23T09:10:52;98005.22;;;20.81;66.77
5062;BME280;2351;50.812;12.872;2022-07-23T09:13:33;98002.38;;;20.89;66.35
5062;BME280;2351;50.812;12.872;2022-07-23T09:16:08;98015.38;;;20.85;65.40
5062;BME280;2351;50.812;12.872;2022-07-23T09:18:44;98027.44;;;20.96;66.19
5062;BME280;2351;50.812;12.872;2022-07-23T09:21:18;98037.66;;;21.07;66.00
5062;BME280;2351;50.812;12.872;2022-07-23T09:23:55;98027.41;;;21.25;66.26
5062;BME280;2351;50.812;12.872;2022-07-23T09:26:36;98016.41;;;21.19;64.38
5062;BME280;2351;50.812;12.872;2022-07-23T09:29:10;98013.94;;;21.25;64.00
5062;BME280;2351;50.812;12.872;2022-07-23T09:31:48;98005.31;;;21.29;64.58
5062;BME280;2351;50.812;12.872;2022-07-23T09:34:21;98008.03;;;21.43;64.40
5062;BME280;2351;50.812;12.872;2022-07-23T09:36:55;98011.75;;;21.42;63.17
5062;BME280;2351;50.812;12.872;2022-07-23T09:39:28;98011.47;;;21.23;62.68
5062;BME280;2351;50.812;12.872;2022-07-23T09:42:13;98030.31;;;21.23;63.14
5062;BME280;2351;50.812;12.872;2022-07-23T09:44:47;98032.41;;;21.28;63.28
5062;BME280;2351;50.812;12.872;2022-07-23T09:47:21;98031.56;;;21.27;63.46
5062;BME280;2351;50.812;12.872;2022-07-23T09:50:00;98025.63;;;21.39;64.29
5062;BME280;2351;50.812;12.872;2022-07-23T09:52:36;98022.16;;;21.58;64.56
5062;BME280;2351;50.812;12.872;2022-07-23T09:55:08;98030.53;;;21.70;63.52
5062;BME280;2351;50.812;12.872;2022-07-23T09:57:41;98022.50;;;21.84;63.36
5062;BME280;2351;50.812;12.872;2022-07-23T10:00:13;98025.34;;;21.69;61.45
5062;BME280;2351;50.812;12.872;2022-07-23T10:02:47;98030.94;;;21.74;62.18
5062;BME280;2351;50.812;12.872;2022-07-23T10:05:19;98026.47;;;21.94;62.48
5062;BME280;2351;50.812;12.872;2022-07-23T10:07:51;98020.88;;;22.03;61.53
5062;BME280;2351;50.812;12.872;2022-07-23T10:10:24;98024.22;;;22.11;61.35
5062;BME280;2351;50.812;12.872;2022-07-23T10:12:59;98025.88;;;22.19;61.22
5062;BME280;2351;50.812;12.872;2022-07-23T10:15:42;98033.56;;;22.22;60.67
5062;BME280;2351;50.812;12.872;2022-07-23T10:18:16;98031.28;;;22.33;60.87
5062;BME280;2351;50.812;12.872;2022-07-23T10:20:48;98033.19;;;22.39;60.42
5062;BME280;2351;50.812;12.872;2022-07-23T10:23:26;98032.56;;;22.44;60.56
5062;BME280;2351;50.812;12.872;2022-07-23T10:26:05;98031.28;;;22.26;58.92
5062;BME280;2351;50.812;12.872;2022-07-23T10:29:02;98042.44;;;22.03;59.80
5062;BME280;2351;50.812;12.872;2022-07-23T10:31:46;98054.38;;;21.80;60.11
5062;BME280;2351;50.812;12.872;2022-07-23T10:34:27;98044.19;;;21.62;60.72
5062;BME280;2351;50.812;12.872;2022-07-23T10:37:07;98048.41;;;21.43;62.18
5062;BME280;2351;50.812;12.872;2022-07-23T10:39:43;98050.81;;;21.24;62.23
5062;BME280;2351;50.812;12.872;2022-07-23T10:42:16;98035.38;;;21.04;62.93
5062;BME280;2351;50.812;12.872;2022-07-23T10:44:48;98049.19;;;20.95;63.75
5062;BME280;2351;50.812;12.872;2022-07-23T10:47:26;98040.69;;;20.98;65.32
5062;BME280;2351;50.812;12.872;2022-07-23T10:50:23;98037.09;;;20.84;65.64
5062;BME280;2351;50.812;12.872;2022-07-23T10:53:17;98036.22;;;20.76;66.76
5062;BME280;2351;50.812;12.872;2022-07-23T10:55:51;98028.81;;;20.57;67.86
5062;BME280;2351;50.812;12.872;2022-07-23T10:58:46;98044.69;;;20.52;69.02
5062;BME280;2351;50.812;12.872;2022-07-23T11:01:35;98059.41;;;20.56;69.71
5062;BME280;2351;50.812;12.872;2022-07-23T11:04:07;98063.75;;;20.57;70.08
5062;BME280;2351;50.812;12.872;2022-07-23T11:07:08;98072.22;;;20.32;70.00
5062;BME280;2351;50.812;12.872;2022-07-23T11:09:43;98076.41;;;20.20;71.40
5062;BME280;2351;50.812;12.872;2022-07-23T11:12:33;98076.34;;;20.13;72.57
5062;BME280;2351;50.812;12.872;2022-07-23T11:15:09;98070.41;;;20.17;72.95
5062;BME280;2351;50.812;12.872;2022-07-23T11:17:59;98079.41;;;20.10;71.85
5062;BME280;2351;50.812;12.872;2022-07-23T11:20:31;98078.78;;;20.08;71.66
5062;BME280;2351;50.812;12.872;2022-07-23T11:23:04;98078.47;;;19.96;71.10
5062;BME280;2351;50.812;12.872;2022-07-23T11:25:36;98069.47;;;19.89;71.06
5062;BME280;2351;50.812;12.872;2022-07-23T11:28:14;98085.38;;;19.75;70.79
5062;BME280;2351;50.812;12.872;2022-07-23T11:30:47;98080.13;;;19.82;71.83
5062;BME280;2351;50.812;12.872;2022-07-23T11:33:20;98076.53;;;19.90;71.81
5062;BME280;2351;50.812;12.872;2022-07-23T11:36:03;98071.16;;;19.90;72.14
5062;BME280;2351;50.812;12.872;2022-07-23T11:38:37;98070.00;;;19.99;72.22
5062;BME280;2351;50.812;12.872;2022-07-23T11:41:10;98074.88;;;20.10;72.79
5062;BME280;2351;50.812;12.872;2022-07-23T11:43:42;98081.78;;;20.20;72.72
5062;BME280;2351;50.812;12.872;2022-07-23T11:46:13;98082.69;;;20.27;71.93
5062;BME280;2351;50.812;12.872;2022-07-23T11:48:45;98079.31;;;20.40;72.21
5062;BME280;2351;50.812;12.872;2022-07-23T11:51:24;98088.06;;;20.49;71.50
5062;BME280;2351;50.812;12.872;2022-07-23T11:54:06;98092.56;;;20.63;70.16
5062;BME280;2351;50.812;12.872;2022-07-23T11:56:54;98089.09;;;20.47;70.14
5062;BME280;2351;50.812;12.872;2022-07-23T11:59:28;98078.97;;;20.50;70.44
5062;BME280;2351;50.812;12.872;2022-07-23T12:02:03;98080.75;;;20.64;68.94
5062;BME280;2351;50.812;12.872;2022-07-23T12:04:38;98076.34;;;20.78;68.99
5062;BME280;2351;50.812;12.872;2022-07-23T12:07:25;98064.06;;;20.69;69.18
5062;BME280;2351;50.812;12.872;2022-07-23T12:10:00;98061.16;;;20.70;69.70
5062;BME280;2351;50.812;12.872;2022-07-23T12:12:36;98063.88;;;20.99;69.76
5062;BME280;2351;50.812;12.872;2022-07-23T12:15:09;98060.34;;;21.27;68.68
5062;BME280;2351;50.812;12.872;2022-07-23T12:17:43;98073.44;;;21.36;67.00
5062;BME280;2351;50.812;12.872;2022-07-23T12:20:16;98066.34;;;21.29;66.81
5062;BME280;2351;50.812;12.872;2022-07-23T12:22:50;98069.16;;;21.49;67.66
5062;BME280;2351;50.812;12.872;2022-07-23T12:25:25;98069.03;;;21.64;66.33
5062;BME280;2351;50.812;12.872;2022-07-23T12:28:03;98077.41;;;21.47;66.39
5062;BME280;2351;50.812;12.872;2022-07-23T12:30:38;98082.38;;;21.44;65.29
5062;BME280;2351;50.812;12.872;2022-07-23T12:33:11;98073.16;;;21.25;66.55
5062;BME280;2351;50.812;12.872;2022-07-23T12:35:45;98070.09;;;21.34;67.32
5062;BME280;2351;50.812;12.872;2022-07-23T12:38:19;98065.09;;;21.31;66.57
5062;BME280;2351;50.812;12.872;2022-07-23T12:40:54;98057.84;;;21.25;67.20
5062;BME280;2351;50.812;12.872;2022-07-23T12:43:28;98052.50;;;21.32;68.42
5062;BME280;2351;50.812;12.872;2022-07-23T12:46:04;98051.38;;;21.55;67.39
5062;BME280;2351;50.812;12.872;2022-07-23T12:48:37;98063.47;;;21.65;65.55
5062;BME280;2351;50.812;12.872;2022-07-23T12:51:14;98069.56;;;21.46;64.91
5062;BME280;2351;50.812;12.872;2022-07-23T12:53:48;98060.69;;;21.17;66.45
5062;BME280;2351;50.812;12.872;2022-07-23T12:56:27;98062.97;;;21.13;66.81
5062;BME280;2351;50.812;12.872;2022-07-23T12:59:05;98065.47;;;21.21;67.81
5062;BME280;2351;50.812;12.872;2022-07-23T13:01:39;98058.31;;;21.35;66.90
5062;BME280;2351;50.812;12.872;2022-07-23T13:04:12;98058.41;;;21.56;67.00
5062;BME280;2351;50.812;12.872;2022-07-23T13:06:45;98053.19;;;21.89;65.78
5062;BME280;2351;50.812;12.872;2022-07-23T13:09:18;98060.41;;;21.82;63.97
5062;BME280;2351;50.812;12.872;2022-07-23T13:11:53;98054.78;;;21.70;64.40
5062;BME280;2351;50.812;12.872;2022-07-23T13:14:26;98061.16;;;21.62;64.63
5062;BME280;2351;50.812;12.872;2022-07-23T13:16:58;98068.53;;;21.47;64.51
5062;BME280;2351;50.812;12.872;2022-07-23T13:19:29;98068.44;;;21.33;65.26
5062;BME280;2351;50.812;12.872;2022-07-23T13:22:01;98075.47;;;21.34;65.55
5062;BME280;2351;50.812;12.872;2022-07-23T13:24:32;98072.50;;;21.22;65.36
5062;BME280;2351;50.812;12.872;2022-07-23T13:27:05;98072.34;;;21.24;65.84
5062;BME280;2351;50.812;12.872;2022-07-23T13:29:38;98068.97;;;21.15;65.96
5062;BME280;2351;50.812;12.872;2022-07-23T13:32:11;98072.75;;;21.28;66.23
5062;BME280;2351;50.812;12.872;2022-07-23T13:34:43;98079.81;;;21.29;65.89
5062;BME280;2351;50.812;12.872;2022-07-23T13:37:15;98075.88;;;21.31;65.51
5062;BME280;2351;50.812;12.872;2022-07-23T13:39:46;98076.50;;;21.33;65.57
5062;BME280;2351;50.812;12.872;2022-07-23T13:42:19;98074.84;;;21.32;65.31